createdAt,value
2019-03-27T00:02:26.645Z,4.78
2019-03-27T00:05:02.755Z,4.82
2019-03-27T00:07:39.103Z,4.87
2019-03-27T00:10:15.250Z,4.94
2019-03-27T00:12:50.992Z,5.05
2019-03-27T00:15:26.979Z,4.99
2019-03-27T00:18:03.936Z,4.92
2019-03-27T00:20:39.086Z,4.92
2019-03-27T00:23:14.839Z,4.92
2019-03-27T00:25:50.536Z,4.95
2019-03-27T00:28:26.007Z,4.95
2019-03-27T00:31:01.616Z,5.08
2019-03-27T00:33:36.954Z,5.08
2019-03-27T00:36:12.680Z,5.09
2019-03-27T00:38:48.547Z,5.13
2019-03-27T00:41:24.172Z,5.15
2019-03-27T00:44:03.749Z,5.12
2019-03-27T00:46:39.135Z,5.07
2019-03-27T00:49:14.710Z,5.06
2019-03-27T00:51:49.934Z,5.02
2019-03-27T00:54:25.300Z,4.93
2019-03-27T00:57:00.720Z,4.85
2019-03-27T00:59:37.207Z,4.78
2019-03-27T01:02:12.654Z,4.84
2019-03-27T01:04:48.074Z,4.82
2019-03-27T01:07:23.540Z,4.82
2019-03-27T01:09:59.146Z,4.85
2019-03-27T01:12:38.000Z,4.88
2019-03-27T01:15:40.041Z,4.89
2019-03-27T01:18:16.440Z,4.89
2019-03-27T01:20:51.603Z,4.87
2019-03-27T01:23:27.938Z,4.95
2019-03-27T01:26:04.082Z,5.00
2019-03-27T01:28:39.655Z,4.95
2019-03-27T01:31:15.319Z,4.89
2019-03-27T01:33:50.844Z,4.85
2019-03-27T01:36:26.123Z,4.81
2019-03-27T01:39:04.411Z,4.78
2019-03-27T01:41:39.873Z,4.74
2019-03-27T01:44:43.811Z,4.69
2019-03-27T01:47:20.982Z,4.67
2019-03-27T01:49:56.103Z,4.67
2019-03-27T01:52:31.811Z,4.70
2019-03-27T01:55:07.531Z,4.74
2019-03-27T01:57:42.589Z,4.76
2019-03-27T02:00:20.246Z,4.79
2019-03-27T02:02:55.891Z,4.81
2019-03-27T02:05:31.396Z,4.83
2019-03-27T02:08:06.837Z,4.86
2019-03-27T02:10:42.144Z,4.91
2019-03-27T02:13:17.785Z,5.03
2019-03-27T02:16:05.856Z,5.16
2019-03-27T02:18:42.843Z,5.26
2019-03-27T02:21:18.543Z,5.42
2019-03-27T02:23:53.949Z,5.56
2019-03-27T02:26:29.428Z,5.51
2019-03-27T02:29:05.065Z,5.47
2019-03-27T02:31:40.361Z,5.35
2019-03-27T02:34:15.640Z,5.24
2019-03-27T02:36:51.063Z,5.12
2019-03-27T02:39:26.531Z,5.00
2019-03-27T02:42:03.001Z,4.90
2019-03-27T02:44:38.331Z,4.85
2019-03-27T02:47:13.857Z,4.88
2019-03-27T02:49:50.314Z,4.80
2019-03-27T02:52:25.758Z,4.70
2019-03-27T02:55:00.860Z,4.60
2019-03-27T02:57:36.229Z,4.45
2019-03-27T03:00:14.284Z,4.28
2019-03-27T03:02:49.771Z,4.19
2019-03-27T03:05:26.549Z,4.02
2019-03-27T03:08:02.494Z,3.79
2019-03-27T03:10:37.829Z,3.58
2019-03-27T03:13:13.256Z,3.44
2019-03-27T03:15:48.550Z,3.30
2019-03-27T03:18:24.183Z,3.23
2019-03-27T03:20:59.301Z,3.12
2019-03-27T03:23:34.684Z,3.02
2019-03-27T03:26:10.130Z,2.90
2019-03-27T03:28:46.028Z,2.80
2019-03-27T03:31:21.764Z,2.69
2019-03-27T03:33:57.851Z,2.55
2019-03-27T03:36:36.390Z,2.53
2019-03-27T03:39:15.252Z,2.54
2019-03-27T03:41:51.470Z,2.44
2019-03-27T03:44:27.822Z,2.37
2019-03-27T03:47:03.250Z,2.31
2019-03-27T03:49:39.485Z,2.22
2019-03-27T03:52:15.527Z,2.24
2019-03-27T03:54:53.870Z,2.13
2019-03-27T03:57:30.617Z,1.99
2019-03-27T04:00:10.673Z,1.96
2019-03-27T04:02:49.556Z,2.00
2019-03-27T04:05:26.965Z,2.02
2019-03-27T04:08:02.695Z,2.09
2019-03-27T04:10:37.487Z,2.14
2019-03-27T04:13:13.101Z,2.11
2019-03-27T04:15:48.755Z,2.01
2019-03-27T04:18:23.985Z,1.96
2019-03-27T04:21:00.119Z,1.98
2019-03-27T04:23:36.495Z,2.06
2019-03-27T04:26:12.645Z,2.18
2019-03-27T04:28:48.082Z,2.34
2019-03-27T04:31:23.231Z,2.45
2019-03-27T04:33:58.439Z,2.57
2019-03-27T04:36:34.054Z,2.71
2019-03-27T04:39:09.763Z,2.83
2019-03-27T04:41:48.567Z,2.80
2019-03-27T04:44:24.554Z,2.69
2019-03-27T04:47:00.165Z,2.73
2019-03-27T04:49:37.623Z,2.66
2019-03-27T04:52:12.939Z,2.60
2019-03-27T04:54:48.457Z,2.53
2019-03-27T04:57:23.790Z,2.49
2019-03-27T05:00:00.394Z,2.51
2019-03-27T05:02:37.313Z,2.50
2019-03-27T05:05:18.561Z,2.47
2019-03-27T05:07:54.180Z,2.54
2019-03-27T05:10:29.844Z,2.57
2019-03-27T05:13:05.998Z,2.62
2019-03-27T05:15:41.572Z,2.69
2019-03-27T05:18:18.161Z,2.78
2019-03-27T05:20:53.555Z,2.83
2019-03-27T05:23:29.577Z,2.88
2019-03-27T05:26:11.750Z,3.04
2019-03-27T05:28:47.299Z,3.10
2019-03-27T05:31:22.712Z,3.16
2019-03-27T05:33:58.288Z,3.19
2019-03-27T05:36:33.939Z,3.17
2019-03-27T05:39:10.057Z,3.12
2019-03-27T05:41:46.830Z,3.11
2019-03-27T05:44:22.113Z,3.05
2019-03-27T05:46:59.241Z,2.99
2019-03-27T05:49:35.670Z,2.92
2019-03-27T05:52:11.645Z,2.84
2019-03-27T05:54:46.910Z,2.75
2019-03-27T05:57:23.765Z,2.69
2019-03-27T06:00:01.446Z,2.72
2019-03-27T06:02:38.330Z,2.78
2019-03-27T06:05:14.140Z,2.85
2019-03-27T06:07:49.328Z,2.97
2019-03-27T06:10:25.331Z,3.08
2019-03-27T06:13:00.559Z,3.21
2019-03-27T06:15:36.409Z,3.33
2019-03-27T06:18:13.581Z,3.45
2019-03-27T06:20:49.236Z,3.52
2019-03-27T06:23:24.743Z,3.60
2019-03-27T06:26:00.659Z,3.62
2019-03-27T06:28:38.259Z,3.65
2019-03-27T06:31:14.828Z,3.69
2019-03-27T06:33:52.937Z,3.76
2019-03-27T06:36:31.811Z,3.90
2019-03-27T06:39:09.238Z,4.03
2019-03-27T06:41:44.915Z,4.16
2019-03-27T06:44:20.596Z,4.19
2019-03-27T06:46:56.362Z,4.22
2019-03-27T06:49:31.591Z,4.30
2019-03-27T06:52:08.448Z,4.41
2019-03-27T06:54:47.696Z,4.59
2019-03-27T06:57:24.082Z,4.68
2019-03-27T07:00:00.455Z,4.80
2019-03-27T07:02:38.791Z,5.03
2019-03-27T07:05:16.123Z,5.27
2019-03-27T07:07:52.400Z,5.39
2019-03-27T07:10:28.183Z,5.51
2019-03-27T07:13:04.598Z,5.64
2019-03-27T07:15:42.409Z,5.80
2019-03-27T07:18:22.446Z,6.01
2019-03-27T07:20:57.630Z,6.24
2019-03-27T07:23:34.807Z,6.45
2019-03-27T07:26:11.527Z,6.60
2019-03-27T07:28:56.178Z,6.67
2019-03-27T07:31:33.967Z,6.73
2019-03-27T07:34:12.022Z,6.75
2019-03-27T07:36:51.743Z,6.81
2019-03-27T07:39:27.914Z,6.96
2019-03-27T07:42:08.526Z,7.19
2019-03-27T07:44:45.713Z,7.42
2019-03-27T07:47:25.870Z,7.82
2019-03-27T07:50:01.945Z,8.08
2019-03-27T07:52:40.886Z,8.21
2019-03-27T07:55:36.325Z,8.23
2019-03-27T07:58:13.319Z,8.17
2019-03-27T08:00:48.532Z,8.17
2019-03-27T08:03:24.403Z,8.15
2019-03-27T08:06:01.663Z,8.08
2019-03-27T08:08:41.592Z,7.99
2019-03-27T08:11:18.638Z,7.97
2019-03-27T08:13:55.738Z,7.85
2019-03-27T08:16:33.582Z,8.11
2019-03-27T08:19:09.026Z,8.52
2019-03-27T08:22:03.722Z,8.97
2019-03-27T08:24:42.392Z,9.69
2019-03-27T08:27:17.665Z,11.03
2019-03-27T08:29:54.154Z,12.07
2019-03-27T08:32:30.549Z,12.14
2019-03-27T08:35:07.530Z,12.33
2019-03-27T08:37:44.080Z,12.45
2019-03-27T08:40:20.261Z,12.59
2019-03-27T08:43:05.246Z,12.22
2019-03-27T08:45:44.678Z,11.59
2019-03-27T08:48:25.813Z,11.07
2019-03-27T08:51:03.373Z,10.60
2019-03-27T08:53:40.159Z,11.16
2019-03-27T08:56:20.897Z,12.40
2019-03-27T08:58:58.568Z,13.54
2019-03-27T09:01:34.202Z,14.50
2019-03-27T09:04:10.237Z,15.02
2019-03-27T09:06:46.164Z,15.48
2019-03-27T09:09:24.158Z,15.51
2019-03-27T09:12:00.237Z,15.50
2019-03-27T09:14:37.679Z,14.46
2019-03-27T09:17:16.285Z,13.64
2019-03-27T09:19:53.886Z,12.50
2019-03-27T09:22:39.312Z,11.39
2019-03-27T09:25:21.754Z,10.55
2019-03-27T09:27:59.435Z,10.09
2019-03-27T09:30:37.054Z,9.90
2019-03-27T09:33:12.785Z,10.25
2019-03-27T09:35:52.111Z,11.30
2019-03-27T09:38:30.050Z,12.33
2019-03-27T09:41:05.963Z,13.38
2019-03-27T09:46:54.648Z,14.20
2019-03-27T09:49:29.903Z,13.80
2019-03-27T09:52:05.759Z,14.15
2019-03-27T09:54:41.038Z,14.04
2019-03-27T09:57:16.400Z,13.90
2019-03-27T09:59:53.787Z,13.39
2019-03-27T10:02:30.055Z,12.72
2019-03-27T10:05:05.683Z,12.27
2019-03-27T10:07:42.844Z,12.14
2019-03-27T10:10:23.363Z,12.06
2019-03-27T10:13:00.953Z,11.81
2019-03-27T10:15:38.231Z,11.77
2019-03-27T10:18:23.135Z,12.37
2019-03-27T10:20:59.221Z,12.61
2019-03-27T10:23:34.664Z,12.45
2019-03-27T10:26:09.906Z,12.22
2019-03-27T10:28:46.708Z,12.03
2019-03-27T10:31:23.402Z,12.04
2019-03-27T10:34:07.636Z,12.27
2019-03-27T10:36:55.911Z,12.46
2019-03-27T10:39:33.536Z,12.54
2019-03-27T10:42:18.075Z,12.98
2019-03-27T10:44:56.500Z,13.46
2019-03-27T10:47:32.041Z,13.91
2019-03-27T10:50:17.626Z,14.23
2019-03-27T10:52:56.835Z,14.12
2019-03-27T10:55:37.093Z,13.88
2019-03-27T10:58:13.776Z,13.36
2019-03-27T11:00:51.329Z,12.94
2019-03-27T11:03:29.551Z,12.90
2019-03-27T11:06:05.390Z,12.60
2019-03-27T11:08:41.955Z,12.46
2019-03-27T11:11:17.192Z,12.54
2019-03-27T11:13:53.590Z,12.64
2019-03-27T11:16:29.265Z,12.57
2019-03-27T11:19:05.385Z,12.45
2019-03-27T11:21:40.675Z,12.78
2019-03-27T11:24:17.517Z,12.99
2019-03-27T11:26:56.573Z,13.12
2019-03-27T11:29:32.011Z,13.25
2019-03-27T11:32:14.148Z,13.27
2019-03-27T11:34:50.355Z,13.23
2019-03-27T11:37:26.451Z,13.11
2019-03-27T11:40:06.243Z,13.10
2019-03-27T11:42:42.041Z,12.98
2019-03-27T11:45:21.790Z,13.16
2019-03-27T11:47:59.643Z,13.29
2019-03-27T11:50:44.778Z,13.53
2019-03-27T11:53:23.528Z,13.85
2019-03-27T11:56:05.845Z,13.66
2019-03-27T11:58:44.279Z,13.30
2019-03-27T12:01:38.619Z,13.03
2019-03-27T12:04:18.993Z,12.75
2019-03-27T12:06:57.691Z,12.56
2019-03-27T12:09:35.419Z,12.53
2019-03-27T12:12:14.767Z,12.45
2019-03-27T12:14:51.679Z,12.47
2019-03-27T12:17:28.322Z,12.46
2019-03-27T12:20:08.849Z,12.43
2019-03-27T12:22:57.311Z,12.41
2019-03-27T12:25:34.682Z,12.54
2019-03-27T12:28:13.267Z,12.84
2019-03-27T12:30:50.636Z,13.56
2019-03-27T12:33:37.732Z,14.26
2019-03-27T12:36:19.027Z,14.86
2019-03-27T12:38:56.747Z,15.10
2019-03-27T12:41:44.045Z,14.98
2019-03-27T12:44:25.662Z,14.81
2019-03-27T12:47:03.895Z,14.44
2019-03-27T12:49:51.846Z,14.15
2019-03-27T12:52:33.490Z,13.76
2019-03-27T12:55:10.792Z,13.46
2019-03-27T12:57:47.451Z,13.19
2019-03-27T13:00:24.450Z,12.98
2019-03-27T13:03:12.909Z,12.80
2019-03-27T13:05:51.451Z,12.76
2019-03-27T13:08:40.586Z,12.61
2019-03-27T13:11:21.554Z,12.67
2019-03-27T13:13:57.382Z,12.69
2019-03-27T13:16:36.725Z,12.72
2019-03-27T13:19:15.639Z,12.66
2019-03-27T13:21:56.087Z,12.71
2019-03-27T13:24:35.458Z,12.65
2019-03-27T13:27:15.987Z,12.52
2019-03-27T13:29:52.604Z,12.39
2019-03-27T13:32:29.903Z,12.31
2019-03-27T13:35:07.799Z,12.25
2019-03-27T13:37:44.790Z,12.57
2019-03-27T13:40:26.264Z,13.37
2019-03-27T13:43:03.236Z,14.08
2019-03-27T13:45:40.560Z,14.90
2019-03-27T13:48:16.707Z,14.93
2019-03-27T13:50:52.375Z,14.74
2019-03-27T13:53:29.328Z,14.35
2019-03-27T13:56:06.931Z,13.87
2019-03-27T13:58:43.587Z,13.50
2019-03-27T14:01:18.775Z,13.18
2019-03-27T14:04:04.413Z,12.99
2019-03-27T14:06:40.849Z,12.90
2019-03-27T14:09:17.461Z,12.82
2019-03-27T14:11:53.406Z,12.81
2019-03-27T14:14:29.918Z,12.73
2019-03-27T14:17:11.794Z,12.52
2019-03-27T14:19:48.859Z,12.52
2019-03-27T14:22:27.214Z,12.69
2019-03-27T14:25:06.882Z,12.62
2019-03-27T14:27:45.284Z,12.56
2019-03-27T14:30:58.850Z,12.49
2019-03-27T14:33:42.423Z,12.56
2019-03-27T14:36:23.092Z,12.63
2019-03-27T14:39:02.604Z,12.62
2019-03-27T14:41:40.943Z,12.81
2019-03-27T14:44:22.500Z,13.09
2019-03-27T14:46:59.713Z,13.30
2019-03-27T14:49:39.950Z,13.39
2019-03-27T14:52:24.951Z,13.46
2019-03-27T14:55:07.416Z,13.40
2019-03-27T14:57:44.660Z,13.12
2019-03-27T15:00:27.717Z,12.98
2019-03-27T15:03:06.567Z,13.01
2019-03-27T15:05:45.767Z,13.09
2019-03-27T15:08:34.847Z,13.17
2019-03-27T15:11:19.809Z,13.44
2019-03-27T15:13:59.646Z,13.67
2019-03-27T15:16:40.474Z,13.68
2019-03-27T15:19:19.502Z,13.50
2019-03-27T15:22:01.876Z,13.32
2019-03-27T15:24:38.471Z,13.62
2019-03-27T15:27:17.576Z,13.93
2019-03-27T15:30:06.720Z,14.25
2019-03-27T15:32:43.381Z,14.28
2019-03-27T15:35:23.702Z,14.03
2019-03-27T15:38:03.460Z,13.89
2019-03-27T15:40:47.424Z,13.96
2019-03-27T15:43:22.828Z,13.77
2019-03-27T15:46:00.494Z,13.39
2019-03-27T15:48:37.272Z,13.26
2019-03-27T15:51:22.748Z,13.14
2019-03-27T15:54:03.869Z,13.10
2019-03-27T15:56:40.029Z,12.98
2019-03-27T15:59:16.402Z,12.98
2019-03-27T16:01:58.210Z,13.11
2019-03-27T16:04:34.176Z,13.25
2019-03-27T16:07:11.861Z,13.14
2019-03-27T16:09:51.863Z,12.97
2019-03-27T16:12:31.599Z,12.86
2019-03-27T16:15:16.666Z,12.87
2019-03-27T16:17:55.905Z,12.88
2019-03-27T16:20:34.180Z,12.82
2019-03-27T16:23:11.784Z,12.78
2019-03-27T16:25:48.325Z,12.71
2019-03-27T16:28:25.129Z,12.62
2019-03-27T16:31:00.530Z,12.42
2019-03-27T16:33:38.522Z,12.34
2019-03-27T16:36:16.395Z,12.32
2019-03-27T16:38:53.158Z,12.37
2019-03-27T16:41:30.640Z,12.42
2019-03-27T16:44:09.642Z,12.36
2019-03-27T16:46:46.464Z,12.29
2019-03-27T16:49:26.830Z,12.20
2019-03-27T16:52:09.813Z,12.18
2019-03-27T16:54:53.391Z,12.13
2019-03-27T16:57:31.825Z,12.09
2019-03-27T17:00:12.850Z,12.05
2019-03-27T17:02:50.233Z,12.10
2019-03-27T17:05:26.589Z,12.07
2019-03-27T17:08:05.750Z,12.06
2019-03-27T17:10:43.052Z,11.97
2019-03-27T17:13:18.865Z,11.94
2019-03-27T17:15:54.585Z,11.90
2019-03-27T17:18:32.761Z,11.82
2019-03-27T17:21:09.881Z,11.71
2019-03-27T17:23:45.980Z,11.66
2019-03-27T17:26:25.338Z,11.53
2019-03-27T17:29:01.115Z,11.37
2019-03-27T17:31:38.780Z,11.25
2019-03-27T17:34:16.662Z,11.17
2019-03-27T17:36:53.883Z,11.07
2019-03-27T17:39:33.989Z,10.98
2019-03-27T17:42:10.147Z,10.91
2019-03-27T17:44:47.740Z,10.82
2019-03-27T17:47:25.677Z,10.73
2019-03-27T17:50:05.578Z,10.70
2019-03-27T17:52:42.915Z,10.62
2019-03-27T17:55:20.110Z,10.56
2019-03-27T17:57:56.530Z,10.44
2019-03-27T18:00:57.833Z,10.34
2019-03-27T18:03:38.812Z,10.20
2019-03-27T18:06:14.942Z,10.10
2019-03-27T18:08:52.434Z,10.01
2019-03-27T18:11:28.805Z,9.91
2019-03-27T18:14:11.627Z,9.84
2019-03-27T18:16:47.548Z,9.76
2019-03-27T18:19:26.759Z,9.70
2019-03-27T18:22:08.023Z,9.60
2019-03-27T18:24:44.839Z,9.51
2019-03-27T18:27:25.009Z,9.44
2019-03-27T18:30:05.679Z,9.40
2019-03-27T18:32:42.847Z,9.35
2019-03-27T18:35:24.405Z,9.27
2019-03-27T18:38:00.616Z,9.25
2019-03-27T18:40:37.397Z,9.24
2019-03-27T18:43:19.200Z,9.24
2019-03-27T18:46:00.180Z,9.25
2019-03-27T18:48:36.830Z,9.23
2019-03-27T18:51:19.062Z,9.19
2019-03-27T18:54:00.001Z,9.13
2019-03-27T18:56:40.819Z,9.07
2019-03-27T18:59:19.323Z,9.05
2019-03-27T19:01:59.454Z,9.04
2019-03-27T19:04:43.725Z,9.04
2019-03-27T19:07:22.874Z,9.04
2019-03-27T19:10:01.416Z,9.00
2019-03-27T19:12:39.486Z,8.97
2019-03-27T19:15:21.412Z,8.93
2019-03-27T19:18:00.054Z,8.91
2019-03-27T19:20:40.706Z,8.90
2019-03-27T19:23:26.357Z,8.84
2019-03-27T19:26:06.560Z,8.78
2019-03-27T19:31:53.835Z,8.79
2019-03-27T19:34:32.929Z,8.83
2019-03-27T19:37:09.103Z,8.86
2019-03-27T19:39:46.883Z,8.89
2019-03-27T19:42:22.972Z,8.89
2019-03-27T19:45:00.532Z,8.89
2019-03-27T19:47:41.756Z,8.89
2019-03-27T19:50:17.401Z,8.89
2019-03-27T19:52:53.367Z,8.87
2019-03-27T19:55:32.834Z,8.82
2019-03-27T19:58:13.787Z,8.76
2019-03-27T20:00:51.328Z,8.72
2019-03-27T20:03:28.306Z,8.70
2019-03-27T20:06:05.553Z,8.74
2019-03-27T20:08:42.468Z,8.80
2019-03-27T20:11:19.297Z,8.85
2019-03-27T20:13:56.528Z,8.87
2019-03-27T20:16:32.775Z,8.84
2019-03-27T20:19:10.047Z,8.77
2019-03-27T20:21:49.677Z,8.71
2019-03-27T20:24:40.189Z,8.72
2019-03-27T20:27:17.463Z,8.73
2019-03-27T20:29:55.425Z,8.76
2019-03-27T20:32:37.892Z,8.79
2019-03-27T20:35:17.689Z,8.84
2019-03-27T20:37:58.120Z,8.82
2019-03-27T20:40:35.177Z,8.79
2019-03-27T20:43:18.026Z,8.77
2019-03-27T20:46:05.742Z,8.71
2019-03-27T20:48:43.385Z,8.62
2019-03-27T20:51:18.728Z,8.54
2019-03-27T20:54:01.367Z,8.45
2019-03-27T20:56:44.012Z,8.42
2019-03-27T20:59:21.195Z,8.43
2019-03-27T21:01:58.429Z,8.44
2019-03-27T21:04:39.437Z,8.44
2019-03-27T21:07:18.711Z,8.46
2019-03-27T21:09:59.335Z,8.50
2019-03-27T21:12:41.179Z,8.56
2019-03-27T21:15:21.730Z,8.63
2019-03-27T21:18:17.836Z,8.73
2019-03-27T21:21:06.851Z,8.66
2019-03-27T21:23:59.334Z,8.60
2019-03-27T21:26:37.592Z,8.54
2019-03-27T21:29:29.670Z,8.49
2019-03-27T21:32:09.778Z,8.52
2019-03-27T21:34:49.980Z,8.43
2019-03-27T21:37:31.590Z,8.38
2019-03-27T21:40:22.491Z,8.40
2019-03-27T21:43:02.408Z,8.46
2019-03-27T21:45:40.700Z,8.49
2019-03-27T21:48:17.719Z,8.50
2019-03-27T21:50:53.019Z,8.54
2019-03-27T21:53:29.680Z,8.58
2019-03-27T21:56:07.089Z,8.62
2019-03-27T21:58:44.586Z,8.63
2019-03-27T22:01:21.547Z,8.65
2019-03-27T22:03:56.835Z,8.67
2019-03-27T22:06:33.751Z,8.75
2019-03-27T22:09:12.175Z,8.75
2019-03-27T22:11:50.164Z,8.76
2019-03-27T22:14:25.857Z,8.72
2019-03-27T22:17:04.783Z,8.68
2019-03-27T22:19:41.453Z,8.64
2019-03-27T22:22:18.685Z,8.61
2019-03-27T22:24:54.700Z,8.56
2019-03-27T22:27:30.867Z,8.49
2019-03-27T22:30:10.480Z,8.44
2019-03-27T22:32:47.806Z,8.41
2019-03-27T22:35:23.047Z,8.37
2019-03-27T22:37:59.475Z,8.31
2019-03-27T22:40:40.329Z,8.25
2019-03-27T22:43:16.420Z,8.26
2019-03-27T22:45:52.178Z,8.18
2019-03-27T22:48:29.535Z,8.13
2019-03-27T22:51:05.221Z,8.11
2019-03-27T22:53:42.354Z,8.10
2019-03-27T22:56:19.788Z,8.07
2019-03-27T22:59:14.029Z,8.03
2019-03-27T23:01:51.173Z,8.03
2019-03-27T23:04:27.820Z,7.95
2019-03-27T23:07:04.294Z,7.85
2019-03-27T23:09:41.162Z,7.74
2019-03-27T23:12:17.444Z,7.66
2019-03-27T23:14:53.378Z,7.56
2019-03-27T23:17:29.388Z,7.50
2019-03-27T23:20:05.308Z,7.45
2019-03-27T23:26:02.522Z,7.44
2019-03-27T23:28:39.342Z,7.40
2019-03-27T23:31:14.496Z,7.35
2019-03-27T23:33:50.725Z,7.33
2019-03-27T23:36:26.065Z,7.39
2019-03-27T23:39:01.406Z,7.38
2019-03-27T23:41:37.074Z,7.35
2019-03-27T23:44:14.164Z,7.35
2019-03-27T23:46:50.322Z,7.38
2019-03-27T23:49:28.815Z,7.40
2019-03-27T23:52:05.452Z,7.39
2019-03-27T23:54:40.958Z,7.38
2019-03-27T23:57:17.243Z,7.36
2019-03-27T23:59:52.621Z,7.35
